Time;durP1;ratioP1;P1;durP2;ratioP2;P2;SDS_P1;SDS_P2;PMS_P1;PMS_P2;Temp;Humidity;BMP_temperature;BMP_pressure;BME280_temperature;BME280_humidity;BME280_pressure;Samples;Min_cycle;Max_cycle;Signal;HPM_P1;HPM_P2
2022/03/17 00:00:08;;;;;;;42.83;24.87;;;;;;;-1.83;53.05;102337.89;1668256;84;21115;-72
2022/03/17 00:02:37;;;;;;;39.30;22.83;;;;;;;-1.87;53.20;102327.13;1654874;84;21099;-68
2022/03/17 00:05:08;;;;;;;43.97;23.90;;;;;;;-1.92;53.49;102330.40;1663848;84;22084;-72
2022/03/17 00:07:39;;;;;;;33.80;22.20;;;;;;;-1.92;53.75;102335.63;1671529;84;21072;-69
2022/03/17 00:10:11;;;;;;;40.23;24.17;;;;;;;-1.96;53.85;102337.50;1670604;84;21060;-69
2022/03/17 00:12:42;;;;;;;49.93;27.27;;;;;;;-1.98;54.08;102337.14;1665274;84;21080;-69
2022/03/17 00:15:10;;;;;;;43.33;25.40;;;;;;;-2.01;54.28;102338.59;1660269;84;21488;-69
2022/03/17 00:17:37;;;;;;;50.50;27.90;;;;;;;-2.04;54.44;102342.14;1667674;84;21095;-69
2022/03/17 00:20:07;;;;;;;44.03;25.10;;;;;;;-2.03;54.66;102344.33;1674330;84;21390;-73
2022/03/17 00:22:35;;;;;;;46.23;29.70;;;;;;;-2.07;54.88;102340.97;1661197;84;21675;-71
2022/03/17 00:25:04;;;;;;;52.23;30.07;;;;;;;-2.08;55.01;102344.95;1671054;84;21544;-71
2022/03/17 00:27:33;;;;;;;42.60;26.33;;;;;;;-2.09;55.29;102343.23;1663864;84;21060;-68
2022/03/17 00:30:00;;;;;;;46.77;25.90;;;;;;;-2.11;55.55;102353.77;1674632;84;21017;-69
2022/03/17 00:32:27;;;;;;;44.40;23.70;;;;;;;-2.19;55.90;102347.48;1678889;84;21074;-70
2022/03/17 00:37:39;;;;;;;40.53;23.77;;;;;;;-2.26;56.48;102356.48;1666553;84;21088;-74
2022/03/17 00:40:07;;;;;;;33.67;18.63;;;;;;;-2.32;56.75;102364.98;1661988;84;21375;-68
2022/03/17 00:42:34;;;;;;;21.93;15.57;;;;;;;-2.38;57.21;102363.44;1670592;84;21579;-70
2022/03/17 00:45:03;;;;;;;22.47;13.77;;;;;;;-2.42;57.51;102370.53;1663026;84;21659;-69
2022/03/17 00:47:30;;;;;;;20.10;13.97;;;;;;;-2.45;57.52;102366.73;1675559;84;21571;-69
2022/03/17 00:49:59;;;;;;;21.90;14.23;;;;;;;-2.47;57.59;102366.38;1665154;84;21171;-73
2022/03/17 00:52:27;;;;;;;22.57;13.80;;;;;;;-2.50;57.44;102361.28;1674612;84;21108;-68
2022/03/17 00:54:55;;;;;;;20.13;12.73;;;;;;;-2.52;57.38;102353.49;1667600;84;21080;-69
2022/03/17 00:59:20;;;;;;;32.90;18.40;;;;;;;-2.47;57.47;102354.63;1796202;78;22220;-71
2022/03/17 01:01:49;;;;;;;38.10;22.47;;;;;;;-2.50;57.58;102354.29;1710640;79;21027;-72
2022/03/17 01:04:16;;;;;;;57.97;30.83;;;;;;;-2.47;57.69;102355.92;1690505;83;21514;-69
2022/03/17 01:06:43;;;;;;;59.80;34.03;;;;;;;-2.45;57.77;102361.94;1691881;83;21490;-69
2022/03/17 01:09:10;;;;;;;53.93;29.60;;;;;;;-2.44;57.78;102361.05;1693683;83;21150;-68
2022/03/17 01:11:36;;;;;;;;;;;;;;;-2.47;57.80;102365.06;1692349;83;21037;-68
2022/03/17 01:14:03;;;;;;;53.57;31.70;;;;;;;-2.50;57.39;102360.81;1688417;83;20202;-67
2022/03/17 01:16:31;;;;;;;55.23;32.07;;;;;;;-2.58;57.44;102358.48;1681903;83;21131;-71
2022/03/17 01:18:57;;;;;;;59.55;30.00;;;;;;;-2.62;57.46;102356.88;1685918;83;21112;-70
2022/03/17 01:21:25;;;;;;;;;;;;;;;-2.66;57.48;102357.88;1688439;83;21514;-69
2022/03/17 01:23:54;;;;;;;39.80;21.43;;;;;;;-2.71;57.16;102364.16;1721788;81;20131;-68
2022/03/17 01:26:20;;;;;;;34.10;18.80;;;;;;;-2.80;56.87;102365.34;1734071;81;21001;-69
2022/03/17 01:28:47;;;;;;;32.80;20.48;;;;;;;-2.84;56.69;102361.14;1732618;81;21080;-70
2022/03/17 01:31:17;;;;;;;43.47;23.43;;;;;;;-2.87;56.77;102363.84;1735217;80;22043;-70
2022/03/17 01:33:45;;;;;;;39.27;18.93;;;;;;;-2.91;56.87;102364.85;1712896;81;21024;-69
2022/03/17 01:36:13;;;;;;;35.77;19.47;;;;;;;-2.92;56.73;102363.13;1701285;83;21590;-69
2022/03/17 01:38:41;;;;;;;37.50;20.73;;;;;;;-2.93;56.41;102360.98;1701257;83;21256;-69
2022/03/17 01:41:09;;;;;;;42.47;22.53;;;;;;;-2.91;56.22;102371.38;1704905;83;20998;-68
2022/03/17 01:43:36;;;;;;;49.47;24.63;;;;;;;-2.94;56.21;102370.58;1705275;83;21113;-68
2022/03/17 01:46:03;;;;;;;61.17;30.50;;;;;;;-2.96;56.34;102363.69;1721092;82;21792;-67
2022/03/17 01:48:30;;;;;;;57.03;29.30;;;;;;;-2.97;56.25;102370.67;1702401;82;21100;-68
2022/03/17 01:50:56;;;;;;;;;;;;;;;-2.97;56.33;102372.44;1700975;83;22106;-68
2022/03/17 01:53:24;;;;;;;79.73;38.67;;;;;;;-2.98;56.40;102374.17;1686639;83;20159;-69
2022/03/17 01:55:50;;;;;;;74.90;36.83;;;;;;;-3.03;56.42;102370.88;1702792;83;21009;-71
2022/03/17 01:58:17;;;;;;;74.90;35.35;;;;;;;-3.00;56.41;102369.91;1699302;83;21140;-69
2022/03/17 02:00:48;;;;;;;57.17;30.10;;;;;;;-2.97;56.30;102373.28;1691301;82;21057;-68
2022/03/17 02:03:16;;;;;;;47.60;27.00;;;;;;;-2.95;56.17;102377.14;1694883;83;21130;-68
2022/03/17 02:05:43;;;;;;;52.33;26.07;;;;;;;-2.95;56.06;102377.98;1700420;83;21463;-69
2022/03/17 02:08:14;;;;;;;42.70;22.13;;;;;;;-2.95;56.07;102381.91;1688574;83;21054;-68
2022/03/17 02:13:23;;;;;;;38.57;21.70;;;;;;;-2.99;55.94;102385.52;1655156;85;21350;-71
2022/03/17 02:15:56;;;;;;;25.23;15.10;;;;;;;-3.05;55.80;102384.43;1681577;84;21124;-69
2022/03/17 02:18:26;;;;;;;24.83;14.40;;;;;;;-3.08;55.80;102392.80;1685516;84;21659;-68
2022/03/17 02:20:57;;;;;;;23.23;13.20;;;;;;;-3.13;55.92;102391.63;1687921;84;21072;-69
2022/03/17 02:26:04;;;;;;;20.27;11.60;;;;;;;-3.58;56.31;102330.91;1673265;83;21034;-70
2022/03/17 02:28:33;;;;;;;16.40;11.03;;;;;;;-3.24;56.60;102389.39;1716226;82;21001;-71
2022/03/17 02:31:02;;;;;;;19.10;11.47;;;;;;;-3.30;57.00;102398.69;1716377;82;21036;-70
2022/03/17 02:33:30;;;;;;;14.87;10.47;;;;;;;-3.34;57.22;102397.92;1715435;82;21120;-67
2022/03/17 02:35:57;;;;;;;14.40;10.37;;;;;;;-3.38;57.40;102400.23;1682526;84;21143;-70
2022/03/17 02:38:25;;;;;;;16.90;10.27;;;;;;;-3.40;57.55;102403.34;1650150;85;21113;-73
2022/03/17 02:40:52;;;;;;;15.03;9.57;;;;;;;-3.41;57.55;102397.73;1662836;85;21327;-71
2022/03/17 02:43:21;;;;;;;15.97;9.17;;;;;;;-3.43;57.69;102404.73;1663027;85;21061;-68
2022/03/17 02:45:48;;;;;;;13.83;9.03;;;;;;;-3.46;57.76;102401.39;1687899;84;21076;-68
2022/03/17 02:48:18;;;;;;;;;;;;;;;-3.49;57.78;102402.77;1699850;84;21096;-68
2022/03/17 02:50:45;;;;;;;12.27;9.40;;;;;;;-3.49;57.72;102397.10;1696440;83;20184;-70
2022/03/17 02:53:15;;;;;;;13.20;9.20;;;;;;;-3.52;57.80;102406.34;1697073;83;21489;-68
2022/03/17 02:55:44;;;;;;;11.17;8.07;;;;;;;-3.52;57.66;102409.80;1676690;83;21009;-68
2022/03/17 02:58:11;;;;;;;12.73;7.67;;;;;;;-3.55;57.16;102400.75;1620513;86;21682;-67
2022/03/17 03:00:39;;;;;;;10.37;7.20;;;;;;;-3.58;56.95;102405.20;1666169;84;21137;-68
2022/03/17 03:03:06;;;;;;;8.57;6.73;;;;;;;-3.63;56.85;102407.11;1666629;84;21065;-71
2022/03/17 03:05:34;;;;;;;8.03;5.83;;;;;;;-3.65;56.27;102411.52;1656677;84;21099;-68
2022/03/17 03:08:02;;;;;;;7.93;6.10;;;;;;;-3.68;55.97;102415.51;1662191;85;21086;-69
2022/03/17 03:10:31;;;;;;;8.43;5.87;;;;;;;-3.71;55.81;102411.25;1658076;84;21133;-70
2022/03/17 03:12:59;;;;;;;8.20;6.20;;;;;;;-3.75;55.68;102410.48;1677785;84;21015;-68
2022/03/17 03:15:26;;;;;;;7.90;5.53;;;;;;;-3.76;55.22;102411.37;1670853;84;21633;-69
2022/03/17 03:17:55;;;;;;;8.03;5.60;;;;;;;-3.78;54.79;102420.14;1679342;84;21177;-69
2022/03/17 03:20:23;;;;;;;7.33;5.53;;;;;;;-3.81;54.63;102431.48;1681787;84;21097;-67
2022/03/17 03:22:50;;;;;;;6.50;5.73;;;;;;;-3.80;54.20;102429.77;1674190;84;21011;-69
2022/03/17 03:25:17;;;;;;;12.67;7.73;;;;;;;-3.84;54.08;102428.99;1659385;84;21047;-69
2022/03/17 03:27:45;;;;;;;8.27;6.40;;;;;;;-3.86;54.14;102430.79;1664726;84;21042;-69
2022/03/17 03:30:18;;;;;;;7.60;5.70;;;;;;;-3.91;53.94;102433.51;1658700;85;21066;-69
2022/03/17 03:32:47;;;;;;;7.03;5.33;;;;;;;-3.94;53.75;102432.73;1656259;84;21161;-73
2022/03/17 03:38:01;;;;;;;7.23;5.43;;;;;;;-4.02;53.67;102438.17;1659190;84;21084;-67
2022/03/17 03:40:29;;;;;;;8.63;6.20;;;;;;;-4.05;53.72;102442.61;1666786;85;21103;-68
2022/03/17 03:42:58;;;;;;;6.27;5.17;;;;;;;-4.05;53.85;102434.79;1675704;84;21094;-70
2022/03/17 03:45:26;;;;;;;7.40;6.57;;;;;;;-4.06;53.88;102442.22;1687744;84;21351;-71
2022/03/17 03:47:53;;;;;;;7.00;5.87;;;;;;;-4.05;53.72;102450.42;1695363;83;21056;-73
2022/03/17 03:50:20;;;;;;;10.33;5.37;;;;;;;-4.05;53.72;102453.02;1673643;83;21065;-67
2022/03/17 03:52:47;;;;;;;7.33;5.27;;;;;;;-4.03;53.79;102455.13;1690305;83;21601;-71
2022/03/17 03:55:14;;;;;;;8.60;6.20;;;;;;;-3.96;53.77;102461.89;1696264;83;21543;-69
2022/03/17 03:57:43;;;;;;;10.43;6.97;;;;;;;-3.95;53.66;102461.86;1683855;83;21052;-68
2022/03/17 04:02:58;;;;;;;8.00;5.97;;;;;;;-3.90;53.57;102464.31;1688061;83;20109;-68
2022/03/17 04:05:29;;;;;;;7.93;5.77;;;;;;;-3.94;53.75;102460.97;1679071;83;21075;-68
2022/03/17 04:07:56;;;;;;;10.87;7.93;;;;;;;-3.93;53.86;102462.66;1696478;83;21507;-67
2022/03/17 04:10:25;;;;;;;14.23;9.93;;;;;;;-3.90;53.83;102469.53;1641533;85;21038;-66
2022/03/17 04:12:52;;;;;;;16.40;12.00;;;;;;;-3.87;53.85;102473.36;1613552;86;21097;-69
2022/03/17 04:15:19;;;;;;;21.43;13.13;;;;;;;-3.86;53.89;102472.48;1608127;87;21585;-69
2022/03/17 04:17:55;;;;;;;25.57;15.53;;;;;;;-3.84;54.00;102472.41;1640173;86;21147;-68
2022/03/17 04:20:23;;;;;;;26.03;16.23;;;;;;;-3.84;54.12;102480.23;1636169;86;21127;-68
2022/03/17 04:22:50;;;;;;;;;;;;;;;-3.84;54.35;102482.41;1630163;85;21165;-68
2022/03/17 04:25:17;;;;;;;30.20;19.12;;;;;;;-3.83;54.48;102477.59;1621405;87;20131;-70
2022/03/17 04:27:46;;;;;;;29.60;19.23;;;;;;;-3.87;54.71;102480.34;1633827;85;21169;-67
2022/03/17 04:30:13;;;;;;;31.70;20.00;;;;;;;-3.86;54.81;102485.52;1635740;86;21076;-68
2022/03/17 04:32:41;;;;;;;27.33;17.90;;;;;;;-3.74;54.81;102482.55;1625374;86;21063;-70
2022/03/17 04:35:08;;;;;;;29.75;19.12;;;;;;;-3.45;54.78;102484.75;1647839;85;21065;-72
2022/03/17 04:37:37;;;;;;;36.63;20.07;;;;;;;-2.98;53.83;102483.77;1617746;87;22354;-68
2022/03/17 04:40:07;;;;;;;29.33;19.20;;;;;;;-2.45;52.46;102484.27;1620407;87;21081;-69
2022/03/17 04:42:33;;;;;;;28.77;18.73;;;;;;;-2.00;51.17;102484.02;1639648;85;21047;-68
2022/03/17 04:45:00;;;;;;;28.63;19.63;;;;;;;-1.70;50.49;102492.98;1643011;85;21041;-68
2022/03/17 04:47:27;;;;;;;29.98;18.25;;;;;;;-1.33;49.94;102498.16;1635231;86;21056;-69
2022/03/17 04:49:54;;;;;;;30.57;19.87;;;;;;;-0.77;48.61;102500.77;1635450;86;21171;-70
2022/03/17 04:55:08;;;;;;;26.40;17.40;;;;;;;0.33;46.11;102504.41;1618496;87;21050;-70
2022/03/17 04:57:37;;;;;;;24.80;17.77;;;;;;;0.77;44.16;102503.71;1621988;87;21511;-68
2022/03/17 05:00:06;;;;;;;28.00;17.60;;;;;;;1.05;43.06;102508.11;1636746;86;21676;-68
2022/03/17 05:02:35;;;;;;;28.07;18.03;;;;;;;1.21;41.94;102506.45;1635512;86;21077;-69
2022/03/17 05:05:03;;;;;;;23.17;15.97;;;;;;;1.40;41.67;102518.23;1635879;86;21082;-69
2022/03/17 05:07:31;;;;;;;25.83;17.80;;;;;;;1.55;41.10;102508.27;1645167;86;21546;-73
2022/03/17 05:09:59;;;;;;;20.97;15.27;;;;;;;1.91;40.16;102508.66;1645231;86;21141;-67
2022/03/17 05:12:28;;;;;;;21.60;15.17;;;;;;;2.35;39.58;102517.78;1643640;86;21522;-70
2022/03/17 05:14:55;;;;;;;19.90;14.70;;;;;;;2.79;38.24;102506.66;1627151;87;21092;-68
2022/03/17 05:17:22;;;;;;;19.17;13.00;;;;;;;3.23;37.08;102513.01;1632611;86;21491;-69
2022/03/17 05:19:51;;;;;;;21.07;14.87;;;;;;;3.54;35.86;102508.13;1634783;86;21136;-73
2022/03/17 05:22:18;;;;;;;25.27;15.87;;;;;;;3.91;35.43;102516.52;1634792;86;21556;-70
2022/03/17 05:24:45;;;;;;;15.93;13.27;;;;;;;4.29;34.09;102520.83;1638085;86;21092;-69
2022/03/17 05:27:13;;;;;;;17.00;14.67;;;;;;;4.51;33.96;102525.25;1635130;86;21124;-71
2022/03/17 05:29:41;;;;;;;16.63;13.50;;;;;;;4.72;33.12;102519.09;1636370;86;21082;-70
2022/03/17 05:32:11;;;;;;;17.43;13.57;;;;;;;4.85;33.37;102520.85;1639258;86;21141;-69
2022/03/17 05:34:37;;;;;;;15.27;12.27;;;;;;;5.18;32.55;102526.27;1637556;86;21049;-70
2022/03/17 05:37:04;;;;;;;13.50;11.87;;;;;;;5.43;32.06;102533.92;1616712;87;21703;-69
2022/03/17 05:39:31;;;;;;;18.20;15.10;;;;;;;5.65;31.66;102532.88;1638597;86;21139;-71
2022/03/17 05:41:59;;;;;;;19.00;14.53;;;;;;;5.87;31.30;102538.03;1608732;88;21668;-70
2022/03/17 05:44:26;;;;;;;17.40;13.00;;;;;;;5.85;30.73;102545.23;1608180;87;21044;-70
2022/03/17 05:46:55;;;;;;;14.13;12.27;;;;;;;5.87;30.90;102541.16;1610967;88;21085;-70
2022/03/17 05:49:22;;;;;;;13.23;11.13;;;;;;;5.91;30.41;102543.97;1607036;88;21154;-70
2022/03/17 05:51:48;;;;;;;15.20;12.20;;;;;;;6.00;30.68;102542.89;1605400;88;21009;-70
2022/03/17 05:54:15;;;;;;;16.52;13.03;;;;;;;6.31;30.02;102543.46;1609848;88;21076;-71
2022/03/17 05:56:43;;;;;;;16.33;12.83;;;;;;;6.60;29.47;102545.37;1608546;88;21098;-72
2022/03/17 05:59:10;;;;;;;14.47;12.17;;;;;;;6.72;28.71;102542.82;1637576;86;21085;-70
2022/03/17 06:01:37;;;;;;;15.67;12.87;;;;;;;6.73;28.98;102545.37;1638112;86;21130;-70
2022/03/17 06:04:03;;;;;;;;;;;;;;;6.77;29.12;102557.44;1641444;86;21143;-69
2022/03/17 06:06:31;;;;;;;17.35;11.85;;;;;;;6.89;28.36;102556.20;1643519;86;20110;-70
2022/03/17 06:09:00;;;;;;;16.17;12.80;;;;;;;6.75;28.45;102547.91;1638462;86;21062;-71
2022/03/17 06:11:30;;;;;;;18.60;11.10;;;;;;;6.46;28.23;102554.80;1611731;87;21051;-71
2022/03/17 06:13:59;;;;;;;12.57;9.50;;;;;;;6.11;28.42;102547.95;1639493;86;21081;-70
2022/03/17 06:16:28;;;;;;;11.13;9.67;;;;;;;5.86;28.77;102552.23;1636744;86;21074;-69
2022/03/17 06:18:55;;;;;;;10.77;9.60;;;;;;;5.85;28.63;102569.05;1637631;86;21102;-73
2022/03/17 06:21:23;;;;;;;11.87;8.60;;;;;;;5.90;28.64;102561.66;1616146;87;21046;-71
2022/03/17 06:23:50;;;;;;;10.07;7.67;;;;;;;5.82;28.29;102574.53;1611854;87;21093;-69
2022/03/17 06:26:17;;;;;;;7.80;6.80;;;;;;;5.48;28.57;102562.70;1607262;88;21737;-70
2022/03/17 06:28:43;;;;;;;7.10;5.50;;;;;;;5.18;28.53;102561.09;1638104;86;21079;-70
2022/03/17 06:31:12;;;;;;;5.50;4.93;;;;;;;4.63;29.19;102567.61;1619876;87;21079;-70
2022/03/17 06:33:40;;;;;;;8.20;5.57;;;;;;;4.36;29.45;102564.01;1646167;83;21080;-71
2022/03/17 06:36:07;;;;;;;9.37;6.67;;;;;;;4.09;29.40;102572.17;1700564;83;21055;-71
2022/03/17 06:38:33;;;;;;;;;;;;;;;4.07;29.92;102570.09;1701121;83;21051;-70
2022/03/17 06:41:00;;;;;;;6.50;4.58;;;;;;;4.09;29.01;102565.57;1695374;83;20453;-69
2022/03/17 06:43:27;;;;;;;4.57;4.17;;;;;;;3.77;29.37;102565.28;1700742;83;21110;-70
2022/03/17 06:45:54;;;;;;;7.97;4.85;;;;;;;3.26;29.85;102580.90;1702230;83;21061;-73
2022/03/17 06:48:21;;;;;;;4.33;3.83;;;;;;;2.51;30.10;102580.55;1699722;83;21097;-69
2022/03/17 06:50:48;;;;;;;4.70;3.98;;;;;;;1.74;30.93;102591.02;1700344;83;21556;-69
2022/03/17 06:53:15;;;;;;;4.73;3.83;;;;;;;1.15;31.76;102581.63;1699204;83;21123;-68
2022/03/17 06:55:42;;;;;;;6.37;3.43;;;;;;;0.74;32.26;102585.69;1700580;83;20990;-70
2022/03/17 06:58:09;;;;;;;5.05;4.08;;;;;;;0.33;33.14;102589.67;1701232;82;21025;-71
2022/03/17 07:00:36;;;;;;;3.80;3.30;;;;;;;0.07;33.17;102596.03;1693591;83;21183;-72
2022/03/17 07:03:03;;;;;;;;;;;;;;;-0.16;33.28;102593.91;1667742;84;21008;-69
2022/03/17 07:05:30;;;;;;;4.70;3.30;;;;;;;-0.26;34.13;102587.36;1659561;85;20414;-70
2022/03/17 07:07:57;;;;;;;6.80;4.53;;;;;;;-0.41;34.21;102588.83;1639149;86;21171;-72
2022/03/17 07:10:24;;;;;;;6.30;4.50;;;;;;;-0.46;34.13;102596.02;1640466;86;21551;-69
2022/03/17 07:12:53;;;;;;;7.40;4.00;;;;;;;-0.54;34.57;102570.59;1671208;83;21177;-68
2022/03/17 07:15:20;;;;;;;7.30;5.13;;;;;;;-0.56;35.31;102580.28;1646922;85;21098;-69
2022/03/17 07:17:47;;;;;;;5.58;4.17;;;;;;;-0.53;35.22;102586.69;1666973;84;21142;-70
2022/03/17 07:20:19;;;;;;;4.80;4.00;;;;;;;-0.57;34.60;102575.94;1691111;83;21063;-73
2022/03/17 07:22:49;;;;;;;4.07;3.67;;;;;;;-0.65;34.59;102580.17;1683903;83;21048;-69
2022/03/17 07:25:19;;;;;;;5.50;3.80;;;;;;;-0.64;34.77;102595.83;1651078;85;21033;-69
2022/03/17 07:27:48;;;;;;;3.67;3.37;;;;;;;-0.64;34.72;102596.27;1638768;86;21066;-69
2022/03/17 07:30:22;;;;;;;7.03;4.60;;;;;;;-0.61;34.73;102590.92;1647252;86;21095;-71
2022/03/17 07:32:53;;;;;;;6.73;4.67;;;;;;;-0.56;34.78;102581.59;1669363;85;21109;-76
2022/03/17 07:35:26;;;;;;;5.00;4.50;;;;;;;-0.56;34.99;102591.60;1654114;85;21076;-68
2022/03/17 07:37:50;;;;;;;5.67;3.97;;;;;;;-0.56;35.35;102576.34;1656491;85;20978;-69
2022/03/17 07:40:17;;;;;;;5.15;4.67;;;;;;;-0.59;35.78;102579.92;1661679;85;21785;-68
2022/03/17 07:42:44;;;;;;;4.50;3.70;;;;;;;-0.55;35.76;102581.50;1667150;85;21065;-68
2022/03/17 07:45:16;;;;;;;7.27;4.60;;;;;;;-0.58;36.15;102576.41;1653360;85;21662;-68
2022/03/17 07:47:54;;;;;;;5.57;3.93;;;;;;;-0.55;36.06;102598.99;1614599;86;21090;-68
2022/03/17 07:50:19;;;;;;;6.27;4.37;;;;;;;-0.51;35.67;102607.13;1650664;85;21571;-70
2022/03/17 07:52:59;;;;;;;4.27;3.47;;;;;;;-0.56;35.65;102607.78;1651827;85;21177;-71
2022/03/17 07:55:28;;;;;;;3.67;3.33;;;;;;;-0.37;35.43;102599.58;1657304;85;21014;-67
2022/03/17 07:57:56;;;;;;;5.33;4.20;;;;;;;-0.32;35.15;102596.76;1663736;85;21814;-69
2022/03/17 08:00:24;;;;;;;4.83;3.83;;;;;;;-0.30;35.29;102593.17;1666101;85;21223;-72
2022/03/17 08:02:51;;;;;;;4.43;2.80;;;;;;;-0.31;35.23;102586.22;1678381;84;21161;-72
2022/03/17 08:05:19;;;;;;;3.43;2.97;;;;;;;-0.36;34.99;102595.18;1679043;84;21176;-68
2022/03/17 08:07:46;;;;;;;4.77;3.20;;;;;;;-0.40;34.60;102611.05;1694186;83;21116;-68
2022/03/17 08:10:15;;;;;;;6.93;3.23;;;;;;;-0.44;34.23;102620.37;1692705;84;21657;-67
2022/03/17 08:12:46;;;;;;;5.13;3.90;;;;;;;-0.52;33.71;102576.15;1653739;84;21044;-72
2022/03/17 08:15:13;;;;;;;4.47;3.63;;;;;;;-0.55;34.46;102593.75;1641972;86;21576;-69
2022/03/17 08:17:41;;;;;;;3.20;2.90;;;;;;;-0.61;35.04;102581.75;1646690;85;21106;-68
2022/03/17 08:20:09;;;;;;;;;;;;;;;-0.58;34.98;102584.27;1647186;85;21141;-71
2022/03/17 08:22:40;;;;;;;5.13;3.73;;;;;;;-0.47;35.12;102595.17;1643863;85;20123;-68
2022/03/17 08:25:10;;;;;;;6.17;3.10;;;;;;;-0.44;34.81;102581.92;1645915;85;21878;-76
2022/03/17 08:27:40;;;;;;;4.20;3.80;;;;;;;-0.35;35.15;102624.42;1643655;85;21110;-68
2022/03/17 08:30:09;;;;;;;5.27;4.77;;;;;;;-0.28;34.52;102637.21;1646390;86;21038;-68
2022/03/17 08:32:36;;;;;;;5.20;4.10;;;;;;;-0.24;34.49;102594.23;1646170;85;21065;-69
2022/03/17 08:35:03;;;;;;;6.12;3.95;;;;;;;-0.32;34.52;102600.25;1648217;85;21053;-71
2022/03/17 08:37:30;;;;;;;5.67;3.77;;;;;;;-0.37;34.75;102602.20;1641886;85;21112;-74
2022/03/17 08:39:58;;;;;;;5.77;3.23;;;;;;;-0.48;34.32;102603.93;1647622;85;21093;-69
2022/03/17 08:42:24;;;;;;;4.50;3.42;;;;;;;-0.56;34.69;102590.29;1644941;85;21089;-74
2022/03/17 08:44:53;;;;;;;3.53;3.23;;;;;;;-0.61;34.91;102604.86;1643955;85;21065;-73
2022/03/17 08:50:09;;;;;;;5.85;3.52;;;;;;;-0.78;34.96;102586.34;1646726;85;21568;-69
2022/03/17 08:52:37;;;;;;;5.90;4.20;;;;;;;-0.75;35.27;102598.02;1646695;85;21156;-70
2022/03/17 08:55:05;;;;;;;6.67;3.50;;;;;;;-0.76;35.58;102600.69;1647642;85;22199;-70
2022/03/17 08:57:32;;;;;;;3.30;3.00;;;;;;;-0.71;35.56;102600.06;1646939;85;21073;-69
2022/03/17 09:00:05;;;;;;;6.47;4.58;;;;;;;-0.70;35.70;102595.20;1646708;85;21168;-69
2022/03/17 09:02:27;;;;;;;6.23;5.03;;;;;;;-0.67;35.51;102610.81;1645541;86;21056;-71
2022/03/17 09:04:54;;;;;;;4.97;4.37;;;;;;;-0.61;35.54;102608.79;1644220;86;21048;-73
2022/03/17 09:07:21;;;;;;;4.90;4.20;;;;;;;-0.48;35.84;102592.61;1643309;86;21129;-71
2022/03/17 09:09:48;;;;;;;5.60;4.83;;;;;;;-0.33;35.41;102607.70;1646162;86;21850;-72
2022/03/17 09:12:16;;;;;;;5.53;3.80;;;;;;;-0.18;35.26;102606.70;1652887;85;21088;-68
2022/03/17 09:14:44;;;;;;;7.37;4.70;;;;;;;-0.10;35.21;102600.67;1674531;84;21059;-69
2022/03/17 09:17:11;;;;;;;4.63;4.23;;;;;;;-0.01;34.80;102589.80;1675556;84;21134;-70
2022/03/17 09:19:42;;;;;;;6.10;3.97;;;;;;;-0.02;34.58;102577.59;1671735;84;21040;-68
2022/03/17 09:22:09;;;;;;;6.00;4.07;;;;;;;-0.04;34.30;102592.11;1675093;84;21144;-69
2022/03/17 09:24:37;;;;;;;5.60;3.97;;;;;;;-0.06;34.36;102600.50;1662921;85;21438;-68
2022/03/17 09:27:05;;;;;;;5.43;3.93;;;;;;;-0.06;34.62;102602.24;1665557;85;21580;-71
2022/03/17 09:29:33;;;;;;;4.07;3.60;;;;;;;-0.06;34.88;102614.92;1660362;85;21583;-69
2022/03/17 09:32:04;;;;;;;8.83;5.00;;;;;;;0.00;34.69;102590.22;1665897;85;21002;-69
2022/03/17 09:34:32;;;;;;;8.53;4.80;;;;;;;0.07;34.87;102594.26;1646565;85;21103;-77
2022/03/17 09:36:59;;;;;;;4.63;3.93;;;;;;;0.18;34.40;102578.92;1646625;85;21104;-70
2022/03/17 09:39:45;;;;;;;6.03;4.13;;;;;;;0.23;33.96;102578.73;1645612;85;21164;-69
2022/03/17 09:42:18;;;;;;;5.07;4.63;;;;;;;0.28;33.88;102612.63;1648151;85;21075;-70
2022/03/17 09:44:52;;;;;;;6.50;5.03;;;;;;;0.21;34.27;102605.49;1646453;85;21076;-73
2022/03/17 09:47:27;;;;;;;4.20;3.80;;;;;;;0.12;34.60;102617.22;1648251;85;21097;-69
2022/03/17 09:50:00;;;;;;;5.27;3.90;;;;;;;0.10;33.98;102582.80;1648686;85;21115;-69
2022/03/17 09:52:25;;;;;;;4.80;3.30;;;;;;;0.14;34.10;102579.97;1646656;85;21144;-71
2022/03/17 09:54:52;;;;;;;6.87;4.77;;;;;;;0.21;34.06;102570.09;1650062;85;21176;-70
2022/03/17 09:57:20;;;;;;;5.87;4.67;;;;;;;0.23;33.80;102598.41;1640988;85;21564;-73
2022/03/17 09:59:49;;;;;;;6.13;4.30;;;;;;;0.23;34.03;102591.85;1646293;86;22275;-69
2022/03/17 10:02:19;;;;;;;7.37;4.00;;;;;;;0.25;34.11;102599.19;1655014;85;21232;-69
2022/03/17 10:04:48;;;;;;;5.53;4.87;;;;;;;0.30;33.86;102617.34;1650430;85;21091;-70
2022/03/17 10:07:18;;;;;;;7.07;4.17;;;;;;;0.36;33.83;102579.06;1648446;85;21069;-72
2022/03/17 10:09:46;;;;;;;5.00;4.40;;;;;;;0.46;33.93;102600.50;1655802;85;21069;-69
2022/03/17 10:12:14;;;;;;;4.63;4.17;;;;;;;0.54;33.54;102622.84;1654786;85;21421;-72
2022/03/17 10:14:47;;;;;;;6.07;4.73;;;;;;;0.54;33.75;102578.23;1655120;85;21822;-69
2022/03/17 10:17:37;;;;;;;4.53;4.10;;;;;;;0.52;34.04;102585.32;1649774;85;21139;-73
2022/03/17 10:20:25;;;;;;;4.13;2.90;;;;;;;0.66;33.88;102578.59;1650179;85;21513;-68
2022/03/17 10:22:56;;;;;;;5.30;3.57;;;;;;;0.71;33.67;102602.87;1650902;85;21100;-69
2022/03/17 10:25:29;;;;;;;4.93;4.40;;;;;;;0.70;33.29;102599.87;1660268;84;21015;-70
2022/03/17 10:27:57;;;;;;;5.67;3.87;;;;;;;0.67;33.68;102585.57;1663604;85;21092;-69
2022/03/17 10:30:37;;;;;;;5.60;3.93;;;;;;;0.67;34.02;102581.63;1693893;83;21162;-69
2022/03/17 10:33:15;;;;;;;4.43;3.70;;;;;;;0.74;33.88;102613.25;1695049;83;21071;-71
2022/03/17 10:35:46;;;;;;;5.37;3.57;;;;;;;0.78;33.49;102568.87;1694941;83;21055;-68
2022/03/17 10:38:16;;;;;;;3.63;3.33;;;;;;;0.83;33.58;102563.39;1703657;83;21036;-70
2022/03/17 10:40:48;;;;;;;5.30;3.20;;;;;;;0.90;33.49;102564.36;1699781;83;21095;-68
2022/03/17 10:43:22;;;;;;;4.33;3.97;;;;;;;1.01;33.44;102550.73;1691693;82;21082;-73
2022/03/17 10:46:09;;;;;;;3.60;3.30;;;;;;;1.16;33.30;102578.06;1694962;83;21538;-68
2022/03/17 10:48:58;;;;;;;5.93;4.27;;;;;;;1.26;32.61;102567.52;1680418;83;21124;-73
2022/03/17 10:51:44;;;;;;;3.97;3.43;;;;;;;1.32;32.76;102564.59;1674821;83;20981;-68
2022/03/17 10:54:21;;;;;;;4.27;3.87;;;;;;;1.37;33.17;102565.67;1688695;83;21100;-73
2022/03/17 10:57:11;;;;;;;6.73;3.33;;;;;;;1.40;33.25;102558.13;1690593;83;21047;-68
2022/03/17 10:59:47;;;;;;;3.60;3.17;;;;;;;1.39;33.02;102544.58;1694426;83;21064;-69
2022/03/17 11:02:25;;;;;;;5.53;3.10;;;;;;;1.34;32.42;102594.27;1696387;83;21067;-72
2022/03/17 11:04:53;;;;;;;8.00;5.50;;;;;;;1.27;32.09;102569.68;1659943;84;21050;-70
2022/03/17 11:07:21;;;;;;;4.70;3.70;;;;;;;1.15;31.70;102560.61;1658333;84;21699;-70
2022/03/17 11:09:48;;;;;;;6.50;5.73;;;;;;;1.01;32.29;102571.75;1645362;85;21061;-69
2022/03/17 11:12:20;;;;;;;12.53;9.10;;;;;;;0.96;32.49;102592.98;1654451;85;21056;-70
2022/03/17 11:14:50;;;;;;;14.50;8.80;;;;;;;0.93;32.61;102568.63;1664719;85;21096;-70
2022/03/17 11:17:21;;;;;;;12.60;8.37;;;;;;;0.96;32.78;102573.72;1694667;83;21031;-74
2022/03/17 11:19:51;;;;;;;10.20;7.63;;;;;;;0.99;32.91;102572.28;1666479;83;21040;-69
2022/03/17 11:22:28;;;;;;;16.10;10.20;;;;;;;1.08;33.09;102564.45;1683251;83;21148;-74
2022/03/17 11:25:18;;;;;;;17.20;11.20;;;;;;;1.13;32.58;102555.86;1680650;83;21123;-68
2022/03/17 11:27:47;;;;;;;15.77;9.60;;;;;;;1.16;32.68;102551.31;1681880;83;21074;-69
2022/03/17 11:30:16;;;;;;;5.80;4.23;;;;;;;1.21;32.69;102576.55;1694863;83;21485;-71
2022/03/17 11:32:58;;;;;;;7.07;4.87;;;;;;;0.75;32.31;102500.31;1679701;83;22059;-70
2022/03/17 11:35:29;;;;;;;19.80;14.70;;;;;;;0.86;32.61;102515.53;1691099;83;21191;-71
2022/03/17 11:38:17;;;;;;;17.53;11.47;;;;;;;1.13;32.79;102569.88;1660837;85;21187;-70
2022/03/17 11:41:17;;;;;;;10.53;8.08;;;;;;;1.12;33.06;102550.23;1688113;83;21053;-68
2022/03/17 11:43:52;;;;;;;13.60;6.30;;;;;;;1.07;33.09;102587.68;1688908;83;21072;-68
2022/03/17 11:46:23;;;;;;;8.07;5.73;;;;;;;0.99;33.22;102557.84;1694631;83;21115;-70
2022/03/17 11:48:57;;;;;;;8.87;7.43;;;;;;;0.94;33.29;102587.39;1686862;83;21075;-69
2022/03/17 11:51:25;;;;;;;8.37;5.57;;;;;;;0.97;33.39;102555.74;1685293;83;21614;-68
2022/03/17 11:54:06;;;;;;;12.27;6.50;;;;;;;0.99;32.86;102556.99;1694180;83;21007;-70